This demonstration page uses our WeatherBlox Daily Observations layout. Learn more.

41.55636, -103.73856

Hourly Observations for July 18, 2019

Temp ( °F °C ) Dew Point ( °F °C ) Humidity (%) Winds ( mph kmh ) Pressure ( in mb ) Visibility ( mi km ) Precip ( " mm )
12:56 am 00:56 Clear 79 25.9 62 16.8 57 57 S 17 28 29.75 1007 10 16.0934 0 0
1:56 am 01:56 Mostly Cloudy 74 23.3 63 17.3 69 69 S 9 15 29.77 1008 10 16.0934 0 0
2:56 am 02:56 Partly Cloudy 71 21.6 63 17.1 76 76 S 7 11 29.78 1008 10 16.0934 0 0
4:56 am 04:56 Clear 69 20.6 57 14.1 66 66 SW 13 20 29.8 1009 10 16.0934 0 0
6:56 am 06:56 Clear 67 19.7 55 13 65 65 W 10 17 29.79 1009 10 16.0934 0 0
9:56 am 09:56 Clear 62 16.9 42 5.5 47 47 W 14 22 29.79 1009 10 16.0934 0 0
10:56 am 10:56 Clear 63 17.1 42 5.7 47 47 W 12 19 29.79 1009 10 16.0934 0 0
11:56 am 11:56 Sunny 61 16 44 6.5 54 54 W 10 17 29.79 1009 10 16.0934 0 0
12:56 pm 12:56 Hazy 66 19 47 8.4 50 50 W 10 17 29.8 1009 6 9.65604 0 0
1:56 pm 13:56 Sunny 75 24 45 7 34 34 W 12 19 29.79 1009 10 16.0934 0 0
2:58 pm 14:58 Sunny 80 26.6 44 6.8 28 28 W 15 24 29.58 1002 10 16.0934 0 0
3:58 pm 15:58 Sunny 83 28.6 44 6.6 25 25 WNW 14 22 29.55 1001 10 16.0934 0 0
4:56 pm 16:56 Sunny 86 30.2 42 5.8 21 21 WNW 14 22 29.78 1009 10 16.0934 0 0
5:56 pm 17:56 Sunny 89 31.7 35 1.4 14 14 W 15 24 29.76 1008 10 16.0934 0 0
6:58 pm 18:58 Sunny 92 33.6 34 1.3 13 13 WNW 18 30 29.41 996 10 16.0934 0 0
7:58 pm 19:58 Sunny 93 33.8 33 0.6 12 12 W 18 30 29.4 996 10 16.0934 0 0
8:58 pm 20:58 Sunny 94 34.2 35 1.7 13 13 W 15 24 29.37 995 10 16.0934 0 0
9:58 pm 21:58 Sunny 94 34.5 31 -0.5 11 11 WNW 9 15 29.36 994 10 16.0934 0 0
10:58 pm 22:58 Sunny 94 34.2 33 0.6 12 12 WNW 13 20 29.36 994 10 16.0934 0 0
11:58 pm 23:58 Sunny 92 33.5 36 2 13 13 W 10 17 29.37 995 10 16.0934 0 0

Powered by AerisWeather